Delta Pride — DSNG6 — position and weather

sailwx.info

Track history (hours):
 
Tides and Currents Weather Stations Pressure Air Temp Water Temp Dewpoint Dewpoint Depression Visibility Wind Speed Wind Dir Waves Ship Positions

Delta Pride

Last reported at 2014-Jul-08 14:20 UTC. Time now 2014-Jul-22 19:00 UTC.
Position N 37°38' W 124°28'.
Warning: this ship's position is 14 days out of date.

Length 186 m; draft 7.2 m.

Type: Cargo ship. MMSI: 441339000.

Date/timePositionNaut miles runAvg speedWind from/ knotsBaromVisibWave heightAir tempDewpointWater temp
2014-Jul-08 14:20N 37°38' W 124°28'911.9
2014-Jul-08 13:33N 37°37' W 124°17'1311.8
2014-Jul-08 12:24N 37°36' W 123°60'1612.1
2014-Jul-08 11:03N 37°34' W 123°39'612.3
2014-Jul-08 10:33N 37°34' W 123°32'1212.4
2014-Jul-08 09:33N 37°34' W 123°16'1212.5
2014-Jul-08 08:33N 37°36' W 123°00'1313.3
2014-Jul-08 07:33N 37°43' W 122°46'1111.4
2014-Jul-08 06:33N 37°48' W 122°33'8 7.8
2014-Jul-08 05:33N 37°53' W 122°26'1010.0
2014-Jul-08 04:33N 38°02' W 122°21'9 9.1
2014-Jul-08 03:31N 38°02' W 122°09'9 8.3
2014-Jul-08 02:26N 38°03' W 121°58'7 8.0
2014-Jul-08 01:32N 38°01' W 121°49'2 2.3
2014-Jul-08 00:33N 38°02' W 121°52'0 0.0
2014-Jul-07 22:29N 38°02' W 121°52'0 0.0
2014-Jul-07 20:23N 38°02' W 121°52'0 0.0
2014-Jul-07 19:29N 38°02' W 121°52'0 0.0
2014-Jul-07 18:29N 38°02' W 121°52'0 0.0
2014-Jul-07 17:29N 38°02' W 121°52'0 0.0
2014-Jul-07 16:23N 38°02' W 121°52'0 0.0
2014-Jul-07 15:23N 38°02' W 121°52'0 0.0
2014-Jul-07 14:29N 38°02' W 121°52'0 0.0
2014-Jul-07 13:05N 38°02' W 121°52'0 0.0
2014-Jul-07 12:11N 38°02' W 121°52'0 0.0
2014-Jul-07 11:29N 38°02' W 121°52'0 0.0
2014-Jul-07 10:29N 38°02' W 121°52'0 0.0
2014-Jul-07 09:32N 38°02' W 121°52'0 0.0
2014-Jul-07 08:29N 38°02' W 121°52'0 0.0
2014-Jul-07 07:29N 38°02' W 121°52'0 0.0
2014-Jul-07 06:32N 38°02' W 121°52'0 0.0
2014-Jul-07 05:29N 38°02' W 121°52'0 0.0
2014-Jul-07 04:29N 38°02' W 121°52'0 0.0
2014-Jul-07 03:29N 38°02' W 121°52'0 0.0
2014-Jul-07 02:29N 38°02' W 121°52'0 0.0
2014-Jul-06 22:11N 38°02' W 121°52'0 0.0
2014-Jul-06 20:11N 38°02' W 121°52'0 0.0
2014-Jul-06 19:29N 38°02' W 121°52'0 0.0
2014-Jul-06 18:29N 38°02' W 121°52'0 0.0
2014-Jul-06 17:29N 38°02' W 121°52'0 0.0
2014-Jul-06 16:29N 38°02' W 121°52'0 0.0
2014-Jul-06 15:29N 38°02' W 121°52'0 0.0
2014-Jul-06 14:32N 38°02' W 121°52'0 0.0
2014-Jul-06 13:29N 38°02' W 121°52'0 0.0
2014-Jul-06 12:29N 38°02' W 121°52'0 0.0
2014-Jul-06 11:29N 38°02' W 121°52'0 0.0
2014-Jul-06 10:29N 38°02' W 121°52'0 0.0
2014-Jul-06 09:29N 38°02' W 121°52'0 0.0
2014-Jul-06 08:29N 38°02' W 121°52'0 0.0
2014-Jul-06 07:29N 38°02' W 121°52'0 0.0
2014-Jul-06 06:29N 38°02' W 121°52'0 0.0
2014-Jul-06 05:32N 38°02' W 121°52'0 0.0
2014-Jul-06 03:29N 38°02' W 121°52'0 0.0
2014-Jul-06 02:29N 38°02' W 121°52'0 0.0
2014-Jul-06 01:17N 38°02' W 121°52'0 0.0
2014-Jul-05 22:29N 38°02' W 121°52'0 0.0
2014-Jul-05 21:11N 38°02' W 121°52'0 0.0
2014-Jul-05 20:23N 38°02' W 121°52'0 0.0
2014-Jul-05 19:23N 38°02' W 121°52'0 0.0
2014-Jul-05 18:29N 38°02' W 121°52'0 0.0
2014-Jul-05 17:29N 38°02' W 121°52'0 0.0
2014-Jul-05 15:32N 38°02' W 121°52'0 0.0
2014-Jul-05 14:33N 38°02' W 121°52'3 3.4
2014-Jul-05 13:33N 38°03' W 121°56'9 9.0
2014-Jul-05 12:33N 38°02' W 122°07'10 9.9
2014-Jul-05 11:33N 38°03' W 122°20'1110.6
2014-Jul-05 10:33N 37°54' W 122°26'9 9.0
2014-Jul-05 09:33N 37°47' W 122°34'9 9.2
2014-Jul-05 08:33N 37°42' W 122°44'8 8.3
2014-Jul-05 07:33N 37°38' W 122°53'8 8.4
2014-Jul-05 06:33N 37°33' W 123°01'8 8.0
2014-Jul-05 05:33N 37°32' W 123°11'8 8.3
2014-Jul-05 04:33N 37°32' W 123°22'8 8.1
2014-Jul-05 03:33N 37°34' W 123°32'1111.1
2014-Jul-05 02:33N 37°42' W 123°40'1110.7
2014-Jul-05 01:33N 37°51' W 123°49'1110.5
2014-Jul-05 00:33N 37°60' W 123°56'1010.4
2014-Jul-04 23:33N 38°08' W 124°04'1010.1
2014-Jul-04 22:33N 38°16' W 124°11'1010.0
2014-Jul-04 21:33N 38°25' W 124°18'1010.0
2014-Jul-04 20:33N 38°33' W 124°25'10 9.6
2014-Jul-04 19:33N 38°39' W 124°35'1913.6
2014-Jul-04 18:08N 38°50' W 124°56'814.0
2014-Jul-04 17:32N 38°54' W 125°05'  
Track history (hours):
 
Tides and Currents Weather Stations Pressure Air Temp Water Temp Dewpoint Dewpoint Depression Visibility Wind Speed Wind Dir Waves Ship Positions

Delta Pride

Last reported at 2014-Jul-08 14:20 UTC. Time now 2014-Jul-22 19:00 UTC.
Position N 37°38' W 124°28'.
Warning: this ship's position is 14 days out of date.

Length 186 m; draft 7.2 m.

Type: Cargo ship. MMSI: 441339000.

Date/timePositionNaut miles runAvg speedWind from/ knotsBaromVisibWave heightAir tempDewpointWater temp
2014-Jul-08 14:20N 37°38' W 124°28'911.9
2014-Jul-08 13:33N 37°37' W 124°17'1311.8
2014-Jul-08 12:24N 37°36' W 123°60'1612.1
2014-Jul-08 11:03N 37°34' W 123°39'612.3
2014-Jul-08 10:33N 37°34' W 123°32'1212.4
2014-Jul-08 09:33N 37°34' W 123°16'1212.5
2014-Jul-08 08:33N 37°36' W 123°00'1313.3
2014-Jul-08 07:33N 37°43' W 122°46'1111.4
2014-Jul-08 06:33N 37°48' W 122°33'8 7.8
2014-Jul-08 05:33N 37°53' W 122°26'1010.0
2014-Jul-08 04:33N 38°02' W 122°21'9 9.1
2014-Jul-08 03:31N 38°02' W 122°09'9 8.3
2014-Jul-08 02:26N 38°03' W 121°58'7 8.0
2014-Jul-08 01:32N 38°01' W 121°49'2 2.3
2014-Jul-08 00:33N 38°02' W 121°52'0 0.0
2014-Jul-07 22:29N 38°02' W 121°52'0 0.0
2014-Jul-07 20:23N 38°02' W 121°52'0 0.0
2014-Jul-07 19:29N 38°02' W 121°52'0 0.0
2014-Jul-07 18:29N 38°02' W 121°52'0 0.0
2014-Jul-07 17:29N 38°02' W 121°52'0 0.0
2014-Jul-07 16:23N 38°02' W 121°52'0 0.0
2014-Jul-07 15:23N 38°02' W 121°52'0 0.0
2014-Jul-07 14:29N 38°02' W 121°52'0 0.0
2014-Jul-07 13:05N 38°02' W 121°52'0 0.0
2014-Jul-07 12:11N 38°02' W 121°52'0 0.0
2014-Jul-07 11:29N 38°02' W 121°52'0 0.0
2014-Jul-07 10:29N 38°02' W 121°52'0 0.0
2014-Jul-07 09:32N 38°02' W 121°52'0 0.0
2014-Jul-07 08:29N 38°02' W 121°52'0 0.0
2014-Jul-07 07:29N 38°02' W 121°52'0 0.0
2014-Jul-07 06:32N 38°02' W 121°52'0 0.0
2014-Jul-07 05:29N 38°02' W 121°52'0 0.0
2014-Jul-07 04:29N 38°02' W 121°52'0 0.0
2014-Jul-07 03:29N 38°02' W 121°52'0 0.0
2014-Jul-07 02:29N 38°02' W 121°52'0 0.0
2014-Jul-06 22:11N 38°02' W 121°52'0 0.0
2014-Jul-06 20:11N 38°02' W 121°52'0 0.0
2014-Jul-06 19:29N 38°02' W 121°52'0 0.0
2014-Jul-06 18:29N 38°02' W 121°52'0 0.0
2014-Jul-06 17:29N 38°02' W 121°52'0 0.0
2014-Jul-06 16:29N 38°02' W 121°52'0 0.0
2014-Jul-06 15:29N 38°02' W 121°52'0 0.0
2014-Jul-06 14:32N 38°02' W 121°52'0 0.0
2014-Jul-06 13:29N 38°02' W 121°52'0 0.0
2014-Jul-06 12:29N 38°02' W 121°52'0 0.0
2014-Jul-06 11:29N 38°02' W 121°52'0 0.0
2014-Jul-06 10:29N 38°02' W 121°52'0 0.0
2014-Jul-06 09:29N 38°02' W 121°52'0 0.0
2014-Jul-06 08:29N 38°02' W 121°52'0 0.0
2014-Jul-06 07:29N 38°02' W 121°52'0 0.0
2014-Jul-06 06:29N 38°02' W 121°52'0 0.0
2014-Jul-06 05:32N 38°02' W 121°52'0 0.0
2014-Jul-06 03:29N 38°02' W 121°52'0 0.0
2014-Jul-06 02:29N 38°02' W 121°52'0 0.0
2014-Jul-06 01:17N 38°02' W 121°52'0 0.0
2014-Jul-05 22:29N 38°02' W 121°52'0 0.0
2014-Jul-05 21:11N 38°02' W 121°52'0 0.0
2014-Jul-05 20:23N 38°02' W 121°52'0 0.0
2014-Jul-05 19:23N 38°02' W 121°52'0 0.0
2014-Jul-05 18:29N 38°02' W 121°52'0 0.0
2014-Jul-05 17:29N 38°02' W 121°52'0 0.0
2014-Jul-05 15:32N 38°02' W 121°52'0 0.0
2014-Jul-05 14:33N 38°02' W 121°52'3 3.4
2014-Jul-05 13:33N 38°03' W 121°56'9 9.0
2014-Jul-05 12:33N 38°02' W 122°07'10 9.9
2014-Jul-05 11:33N 38°03' W 122°20'1110.6
2014-Jul-05 10:33N 37°54' W 122°26'9 9.0
2014-Jul-05 09:33N 37°47' W 122°34'9 9.2
2014-Jul-05 08:33N 37°42' W 122°44'8 8.3
2014-Jul-05 07:33N 37°38' W 122°53'8 8.4
2014-Jul-05 06:33N 37°33' W 123°01'8 8.0
2014-Jul-05 05:33N 37°32' W 123°11'8 8.3
2014-Jul-05 04:33N 37°32' W 123°22'8 8.1
2014-Jul-05 03:33N 37°34' W 123°32'1111.1
2014-Jul-05 02:33N 37°42' W 123°40'1110.7
2014-Jul-05 01:33N 37°51' W 123°49'1110.5
2014-Jul-05 00:33N 37°60' W 123°56'1010.4
2014-Jul-04 23:33N 38°08' W 124°04'1010.1
2014-Jul-04 22:33N 38°16' W 124°11'1010.0
2014-Jul-04 21:33N 38°25' W 124°18'1010.0
2014-Jul-04 20:33N 38°33' W 124°25'10 9.6
2014-Jul-04 19:33N 38°39' W 124°35'1913.6
2014-Jul-04 18:08N 38°50' W 124°56'814.0
2014-Jul-04 17:32N 38°54' W 125°05'  

Dump ship's entire track history